createdAt,value
2023-04-30T00:00:45.575Z,9.90
2023-04-30T00:03:12.501Z,12.00
2023-04-30T00:05:39.351Z,13.88
2023-04-30T00:08:06.252Z,10.98
2023-04-30T00:10:33.152Z,11.00
2023-04-30T00:12:59.993Z,11.45
2023-04-30T00:15:26.878Z,12.07
2023-04-30T00:17:53.693Z,7.32
2023-04-30T00:20:20.559Z,9.40
2023-04-30T00:22:47.365Z,9.60
2023-04-30T00:25:14.176Z,9.38
2023-04-30T00:27:41.187Z,9.65
2023-04-30T00:30:08.599Z,9.77
2023-04-30T00:32:35.655Z,9.43
2023-04-30T00:35:03.028Z,10.15
2023-04-30T00:37:29.874Z,9.52
2023-04-30T00:39:57.060Z,9.45
2023-04-30T00:42:24.226Z,10.23
2023-04-30T00:44:50.963Z,11.10
2023-04-30T00:47:18.109Z,11.02
2023-04-30T00:49:45.605Z,11.57
2023-04-30T00:52:13.394Z,12.80
2023-04-30T00:54:41.023Z,11.00
2023-04-30T00:57:12.716Z,8.98
2023-04-30T00:59:39.711Z,11.65
2023-04-30T01:02:07.974Z,10.10
2023-04-30T01:04:35.886Z,8.63
2023-04-30T01:07:03.432Z,10.55
2023-04-30T01:09:31.268Z,9.18
2023-04-30T01:12:21.398Z,10.80
2023-04-30T01:14:53.227Z,10.82
2023-04-30T01:17:39.123Z,10.40
2023-04-30T01:20:09.142Z,10.52
2023-04-30T01:22:47.686Z,10.02
2023-04-30T01:25:45.472Z,9.88
2023-04-30T01:28:21.690Z,10.52
2023-04-30T01:30:49.032Z,8.40
2023-04-30T01:33:15.810Z,10.88
2023-04-30T01:36:30.327Z,10.38
2023-04-30T01:39:22.462Z,8.90
2023-04-30T01:42:16.327Z,11.20
2023-04-30T01:45:35.828Z,8.93
2023-04-30T01:48:42.244Z,12.15
2023-04-30T01:51:21.824Z,11.15
2023-04-30T01:53:49.370Z,11.93
2023-04-30T01:56:31.317Z,11.15
2023-04-30T01:58:59.538Z,8.80
2023-04-30T02:01:37.064Z,10.52
2023-04-30T02:04:04.230Z,11.18
2023-04-30T02:06:31.253Z,13.50
2023-04-30T02:09:03.442Z,14.05
2023-04-30T02:11:30.605Z,14.60
2023-04-30T02:13:57.514Z,15.15
2023-04-30T02:16:24.851Z,17.35
2023-04-30T02:18:52.172Z,13.93
2023-04-30T02:21:19.383Z,12.68
2023-04-30T02:23:47.476Z,16.05
2023-04-30T02:26:14.459Z,11.52
2023-04-30T02:28:42.346Z,12.85
2023-04-30T02:31:09.292Z,14.50
2023-04-30T02:33:37.454Z,13.75
2023-04-30T02:36:05.009Z,13.60
2023-04-30T02:38:32.392Z,13.35
2023-04-30T02:40:59.150Z,11.57
2023-04-30T02:43:25.932Z,13.25
2023-04-30T02:45:52.754Z,12.23
2023-04-30T02:48:19.578Z,13.18
2023-04-30T02:50:46.466Z,14.63
2023-04-30T02:53:13.321Z,13.27
2023-04-30T02:55:40.161Z,13.05
2023-04-30T02:58:07.017Z,12.20
2023-04-30T03:00:34.020Z,13.43
2023-04-30T03:03:01.073Z,15.30
2023-04-30T03:05:28.527Z,13.80
2023-04-30T03:07:55.921Z,14.65
2023-04-30T03:10:23.948Z,14.10
2023-04-30T03:12:50.827Z,13.52
2023-04-30T03:15:18.235Z,15.10
2023-04-30T03:17:46.266Z,13.30
2023-04-30T03:20:14.282Z,13.80
2023-04-30T03:22:41.765Z,13.23
2023-04-30T03:25:10.465Z,11.35
2023-04-30T03:27:37.252Z,11.43
2023-04-30T03:30:05.148Z,13.35
2023-04-30T03:32:32.285Z,14.40
2023-04-30T03:34:59.786Z,12.43
2023-04-30T03:37:26.949Z,12.35
2023-04-30T03:39:53.895Z,10.48
2023-04-30T03:42:21.104Z,13.93
2023-04-30T03:44:47.982Z,14.88
2023-04-30T03:47:14.841Z,12.57
2023-04-30T03:49:41.942Z,13.48
2023-04-30T03:52:08.743Z,12.73
2023-04-30T03:54:35.660Z,10.45
2023-04-30T03:57:04.312Z,11.05
2023-04-30T03:59:32.687Z,13.82
2023-04-30T04:02:01.506Z,10.85
2023-04-30T04:04:29.870Z,12.38
2023-04-30T04:06:56.777Z,13.20
2023-04-30T04:09:23.606Z,11.50
2023-04-30T04:11:50.642Z,11.30
2023-04-30T04:14:17.505Z,12.77
2023-04-30T04:16:44.766Z,13.32
2023-04-30T04:19:13.214Z,10.10
2023-04-30T04:21:40.107Z,10.88
2023-04-30T04:24:13.456Z,13.07
2023-04-30T04:26:40.478Z,10.65
2023-04-30T04:29:09.469Z,10.77
2023-04-30T04:31:38.500Z,10.95
2023-04-30T04:34:05.801Z,11.88
2023-04-30T04:36:34.150Z,9.73
2023-04-30T04:39:04.648Z,14.38
2023-04-30T04:41:33.844Z,11.35
2023-04-30T04:44:01.912Z,10.68
2023-04-30T04:46:31.499Z,12.93
2023-04-30T04:48:58.913Z,11.27
2023-04-30T04:51:26.829Z,12.75
2023-04-30T04:53:54.417Z,10.82
2023-04-30T04:56:21.361Z,15.07
2023-04-30T04:58:48.172Z,10.43
2023-04-30T05:01:15.313Z,11.00
2023-04-30T05:03:42.275Z,10.25
2023-04-30T05:06:09.250Z,9.80
2023-04-30T05:08:36.334Z,14.25
2023-04-30T05:11:03.476Z,11.55
2023-04-30T05:13:30.343Z,10.38
2023-04-30T05:15:57.231Z,11.85
2023-04-30T05:18:24.099Z,12.95
2023-04-30T05:20:50.903Z,10.10
2023-04-30T05:23:17.867Z,11.27
2023-04-30T05:25:45.481Z,9.90
2023-04-30T05:28:12.502Z,9.95
2023-04-30T05:30:39.354Z,10.63
2023-04-30T05:33:06.555Z,11.57
2023-04-30T05:35:35.962Z,12.52
2023-04-30T05:38:03.861Z,10.98
2023-04-30T05:40:32.356Z,14.45
2023-04-30T05:42:59.160Z,12.90
2023-04-30T05:45:26.599Z,9.77
2023-04-30T05:47:53.508Z,11.02
2023-04-30T05:50:20.315Z,11.50
2023-04-30T05:52:47.108Z,14.88
2023-04-30T05:55:13.938Z,11.27
2023-04-30T05:57:40.779Z,11.40
2023-04-30T06:00:08.522Z,9.68
2023-04-30T06:02:41.222Z,11.00
2023-04-30T06:05:09.157Z,11.52
2023-04-30T06:07:36.165Z,9.90
2023-04-30T06:10:04.100Z,9.93
2023-04-30T06:12:31.533Z,8.85
2023-04-30T06:14:58.626Z,7.18
2023-04-30T06:17:25.527Z,8.20
2023-04-30T06:19:52.821Z,7.43
2023-04-30T06:22:19.958Z,7.75
2023-04-30T06:24:46.727Z,7.28
2023-04-30T06:27:13.478Z,8.13
2023-04-30T06:29:40.421Z,7.22
2023-04-30T06:32:08.515Z,6.85
2023-04-30T06:34:36.424Z,7.95
2023-04-30T06:37:03.510Z,7.82
2023-04-30T06:39:30.716Z,7.40
2023-04-30T06:41:57.583Z,7.60
2023-04-30T06:44:24.600Z,7.60
2023-04-30T06:46:52.226Z,6.43
2023-04-30T06:49:19.020Z,6.90
2023-04-30T06:51:45.768Z,6.88
2023-04-30T06:54:12.658Z,7.60
2023-04-30T06:56:39.541Z,7.35
2023-04-30T06:59:06.706Z,5.75
2023-04-30T07:01:33.553Z,7.32
2023-04-30T07:04:01.476Z,8.65
2023-04-30T07:06:28.546Z,8.55
2023-04-30T07:08:55.397Z,7.30
2023-04-30T07:11:22.304Z,8.18
2023-04-30T07:13:49.125Z,7.40
2023-04-30T07:16:17.147Z,7.35
2023-04-30T07:18:44.027Z,6.25
2023-04-30T07:21:10.815Z,9.27
2023-04-30T07:23:37.609Z,9.82
2023-04-30T07:26:04.643Z,10.73
2023-04-30T07:28:31.394Z,9.15
2023-04-30T07:30:58.180Z,6.47
2023-04-30T07:33:24.997Z,6.05
2023-04-30T07:35:52.315Z,6.25
2023-04-30T07:38:19.204Z,8.85
2023-04-30T07:40:46.203Z,6.78
2023-04-30T07:43:12.981Z,9.20
2023-04-30T07:45:39.822Z,7.78
2023-04-30T07:48:06.835Z,7.90
2023-04-30T07:50:34.103Z,6.97
2023-04-30T07:53:02.272Z,6.22
2023-04-30T07:55:29.262Z,6.15
2023-04-30T07:57:56.105Z,9.15
2023-04-30T08:00:23.212Z,5.88
2023-04-30T08:02:50.536Z,8.27
2023-04-30T08:05:17.800Z,6.05
2023-04-30T08:07:44.635Z,5.32
2023-04-30T08:10:12.528Z,6.45
2023-04-30T08:12:39.411Z,7.57
2023-04-30T08:15:09.861Z,6.75
2023-04-30T08:17:36.929Z,6.43
2023-04-30T08:20:05.342Z,4.35
2023-04-30T08:22:32.770Z,9.13
2023-04-30T08:25:01.792Z,5.28
2023-04-30T08:27:31.257Z,6.45
2023-04-30T08:29:58.340Z,6.80
2023-04-30T08:32:25.344Z,5.05
2023-04-30T08:34:52.562Z,5.40
2023-04-30T08:37:19.442Z,4.63
2023-04-30T08:39:46.278Z,4.63
2023-04-30T08:42:15.306Z,5.95
2023-04-30T08:44:46.620Z,8.48
2023-04-30T08:47:14.799Z,5.78
2023-04-30T08:49:42.877Z,5.22
2023-04-30T08:52:10.437Z,7.07
2023-04-30T08:54:37.746Z,7.10
2023-04-30T08:57:05.365Z,4.93
2023-04-30T08:59:32.180Z,4.00
2023-04-30T09:02:01.793Z,4.70
2023-04-30T09:04:29.250Z,4.65
2023-04-30T09:06:59.173Z,6.20
2023-04-30T09:09:30.799Z,5.47
2023-04-30T09:12:19.777Z,6.22
2023-04-30T09:15:06.404Z,7.25
2023-04-30T09:17:35.213Z,6.15
2023-04-30T09:20:13.113Z,4.78
2023-04-30T09:22:42.332Z,4.45
2023-04-30T09:25:11.303Z,6.18
2023-04-30T09:27:38.079Z,6.85
2023-04-30T09:30:05.684Z,5.47
2023-04-30T09:32:32.578Z,4.88
2023-04-30T09:34:59.357Z,6.60
2023-04-30T09:37:39.390Z,5.18
2023-04-30T09:40:07.291Z,4.80
2023-04-30T09:42:34.091Z,4.32
2023-04-30T09:45:00.915Z,5.28
2023-04-30T09:47:31.864Z,7.22
2023-04-30T09:50:00.734Z,5.05
2023-04-30T09:52:27.655Z,6.50
2023-04-30T09:54:54.488Z,6.47
2023-04-30T09:57:24.218Z,4.63
2023-04-30T09:59:53.139Z,5.35
2023-04-30T10:02:23.740Z,4.75
2023-04-30T10:04:58.048Z,5.07
2023-04-30T10:07:33.897Z,5.43
2023-04-30T10:10:09.146Z,5.25
2023-04-30T10:12:52.834Z,4.47
2023-04-30T10:15:26.465Z,4.55
2023-04-30T10:18:04.733Z,5.53
2023-04-30T10:20:36.830Z,4.50
2023-04-30T10:23:04.709Z,6.07
2023-04-30T10:25:34.044Z,4.53
2023-04-30T10:28:04.514Z,6.18
2023-04-30T10:30:32.802Z,4.75
2023-04-30T10:33:32.307Z,5.05
2023-04-30T10:36:04.337Z,4.80
2023-04-30T10:38:33.328Z,4.45
2023-04-30T10:41:01.709Z,8.80
2023-04-30T10:43:31.512Z,4.78
2023-04-30T10:45:58.845Z,5.72
2023-04-30T10:48:26.951Z,4.93
2023-04-30T10:50:59.191Z,4.70
2023-04-30T10:53:28.857Z,4.70
2023-04-30T10:56:07.419Z,4.82
2023-04-30T10:58:38.263Z,5.75
2023-04-30T11:01:15.965Z,4.95
2023-04-30T11:04:12.435Z,3.85
2023-04-30T11:07:00.725Z,4.80
2023-04-30T11:09:43.277Z,5.95
2023-04-30T11:12:19.525Z,5.55
2023-04-30T11:14:47.147Z,5.28
2023-04-30T11:17:24.032Z,3.75
2023-04-30T11:19:53.208Z,3.55
2023-04-30T11:22:24.712Z,3.55
2023-04-30T11:25:04.402Z,14.18
2023-04-30T11:27:34.334Z,3.78
2023-04-30T11:30:05.180Z,5.28
2023-04-30T11:32:38.982Z,2.53
2023-04-30T11:35:07.504Z,4.13
2023-04-30T11:37:35.509Z,3.50
2023-04-30T11:40:05.853Z,5.07
2023-04-30T11:42:35.621Z,5.00
2023-04-30T11:45:14.009Z,2.97
2023-04-30T11:47:55.090Z,3.45
2023-04-30T11:50:30.984Z,3.10
2023-04-30T11:53:01.777Z,3.88
2023-04-30T11:55:28.880Z,3.53
2023-04-30T11:57:59.295Z,4.75
2023-04-30T12:00:30.291Z,3.38
2023-04-30T12:03:01.106Z,4.50
2023-04-30T12:05:28.367Z,4.70
2023-04-30T12:08:09.324Z,3.67
2023-04-30T12:10:36.752Z,3.70
2023-04-30T12:13:03.572Z,4.68
2023-04-30T12:15:30.398Z,2.47
2023-04-30T12:17:59.708Z,3.17
2023-04-30T12:20:31.033Z,2.30
2023-04-30T12:22:58.783Z,2.22
2023-04-30T12:25:29.214Z,2.40
2023-04-30T12:27:59.244Z,3.08
2023-04-30T12:30:27.522Z,3.63
2023-04-30T12:32:58.878Z,3.53
2023-04-30T12:35:30.899Z,2.40
2023-04-30T12:38:07.209Z,2.35
2023-04-30T12:40:34.492Z,4.65
2023-04-30T12:43:09.424Z,1.90
2023-04-30T12:45:54.039Z,2.58
2023-04-30T12:48:24.217Z,2.35
2023-04-30T12:50:59.998Z,2.55
2023-04-30T12:53:28.330Z,1.77
2023-04-30T12:56:09.919Z,2.95
2023-04-30T12:58:38.709Z,2.13
2023-04-30T13:01:10.344Z,2.05
2023-04-30T13:03:37.576Z,1.77
2023-04-30T13:06:05.036Z,1.63
2023-04-30T13:08:33.865Z,1.95
2023-04-30T13:11:04.289Z,4.78
2023-04-30T13:13:31.169Z,3.03
2023-04-30T13:15:58.116Z,1.85
2023-04-30T13:18:25.702Z,2.42
2023-04-30T13:20:52.671Z,2.35
2023-04-30T13:23:19.595Z,2.20
2023-04-30T13:25:46.590Z,1.52
2023-04-30T13:28:13.617Z,2.05
2023-04-30T13:30:41.058Z,2.10
2023-04-30T13:33:08.076Z,3.35
2023-04-30T13:35:35.025Z,1.92
2023-04-30T13:38:02.312Z,2.70
2023-04-30T13:40:29.274Z,1.88
2023-04-30T13:42:56.082Z,1.65
2023-04-30T13:45:22.996Z,1.58
2023-04-30T13:47:49.914Z,1.20
2023-04-30T13:50:16.763Z,2.25
2023-04-30T13:52:43.636Z,2.55
2023-04-30T13:55:10.422Z,1.95
2023-04-30T13:57:37.706Z,1.55
2023-04-30T14:00:06.247Z,1.50
2023-04-30T14:02:35.079Z,1.58
2023-04-30T14:05:06.208Z,1.60
2023-04-30T14:07:33.879Z,1.63
2023-04-30T14:10:01.001Z,0.60
2023-04-30T14:12:30.384Z,1.67
2023-04-30T14:14:57.809Z,1.25
2023-04-30T14:17:26.939Z,2.80
2023-04-30T14:19:54.349Z,2.10
2023-04-30T14:22:21.758Z,0.80
2023-04-30T14:24:48.645Z,1.42
2023-04-30T14:27:15.506Z,1.52
2023-04-30T14:29:42.239Z,2.45
2023-04-30T14:32:09.093Z,1.27
2023-04-30T14:34:36.708Z,2.55
2023-04-30T14:37:03.912Z,2.45
2023-04-30T14:39:31.494Z,2.45
2023-04-30T14:41:58.404Z,0.80
2023-04-30T14:44:26.412Z,0.95
2023-04-30T14:46:53.364Z,2.67
2023-04-30T14:49:20.526Z,1.60
2023-04-30T14:51:47.366Z,1.42
2023-04-30T14:54:14.231Z,1.42
2023-04-30T14:56:41.896Z,1.45
2023-04-30T14:59:08.749Z,0.90
2023-04-30T15:01:35.679Z,0.80
2023-04-30T15:04:02.586Z,3.00
2023-04-30T15:06:29.590Z,1.80
2023-04-30T15:08:56.471Z,1.45
2023-04-30T15:11:24.217Z,1.63
2023-04-30T15:13:51.271Z,2.03
2023-04-30T15:16:18.599Z,3.28
2023-04-30T15:18:45.701Z,1.65
2023-04-30T15:21:12.529Z,4.20
2023-04-30T15:23:39.284Z,4.55
2023-04-30T15:26:06.508Z,2.25
2023-04-30T15:28:33.781Z,3.03
2023-04-30T15:31:01.636Z,2.45
2023-04-30T15:33:30.617Z,1.40
2023-04-30T15:35:58.471Z,2.08
2023-04-30T15:38:25.261Z,2.13
2023-04-30T15:40:52.014Z,0.93
2023-04-30T15:43:18.815Z,1.77
2023-04-30T15:45:46.141Z,1.70
2023-04-30T15:48:12.891Z,1.75
2023-04-30T15:50:39.871Z,1.98
2023-04-30T15:53:06.735Z,2.08
2023-04-30T15:55:33.576Z,4.18
2023-04-30T15:58:00.401Z,1.48
2023-04-30T16:00:29.186Z,1.88
2023-04-30T16:02:56.164Z,2.30
2023-04-30T16:05:23.016Z,2.00
2023-04-30T16:07:51.561Z,3.15
2023-04-30T16:10:19.934Z,1.23
2023-04-30T16:12:46.756Z,1.15
2023-04-30T16:15:13.693Z,2.90
2023-04-30T16:17:40.921Z,3.20
2023-04-30T16:20:08.548Z,2.95
2023-04-30T16:22:35.507Z,4.25
2023-04-30T16:25:02.296Z,3.20
2023-04-30T16:27:29.495Z,1.60
2023-04-30T16:29:56.686Z,1.25
2023-04-30T16:32:23.880Z,0.90
2023-04-30T16:34:51.362Z,2.15
2023-04-30T16:37:18.191Z,3.03
2023-04-30T16:39:45.040Z,2.28
2023-04-30T16:42:12.193Z,1.95
2023-04-30T16:44:39.585Z,1.80
2023-04-30T16:47:06.361Z,2.97
2023-04-30T16:49:33.156Z,2.03
2023-04-30T16:52:00.194Z,2.10
2023-04-30T16:54:27.065Z,1.88
2023-04-30T16:56:54.031Z,0.98
2023-04-30T16:59:20.876Z,2.50
2023-04-30T17:01:47.701Z,2.83
2023-04-30T17:04:15.263Z,2.55
2023-04-30T17:06:42.474Z,1.30
2023-04-30T17:09:09.282Z,2.95
2023-04-30T17:11:36.100Z,2.50
2023-04-30T17:14:03.135Z,2.70
2023-04-30T17:16:30.149Z,1.05
2023-04-30T17:18:57.095Z,1.52
2023-04-30T17:21:23.913Z,2.28
2023-04-30T17:23:50.677Z,1.67
2023-04-30T17:26:18.235Z,2.38
2023-04-30T17:28:45.069Z,2.70
2023-04-30T17:31:12.022Z,2.03
2023-04-30T17:33:39.626Z,1.75
2023-04-30T17:36:08.783Z,1.45
2023-04-30T17:38:35.862Z,1.80
2023-04-30T17:41:02.755Z,1.23
2023-04-30T17:43:29.689Z,2.80
2023-04-30T17:45:57.247Z,0.93
2023-04-30T17:48:24.360Z,1.80
2023-04-30T17:50:51.344Z,3.90
2023-04-30T17:53:18.224Z,2.60
2023-04-30T17:55:45.379Z,2.47
2023-04-30T17:58:12.316Z,2.08
2023-04-30T18:00:43.171Z,1.35
2023-04-30T18:03:10.362Z,1.00
2023-04-30T18:05:37.989Z,2.65
2023-04-30T18:08:06.242Z,0.50
2023-04-30T18:10:33.271Z,1.23
2023-04-30T18:13:00.721Z,2.08
2023-04-30T18:15:28.109Z,0.75
2023-04-30T18:17:55.649Z,2.58
2023-04-30T18:20:22.578Z,1.52
2023-04-30T18:22:49.438Z,1.55
2023-04-30T18:25:17.654Z,1.88
2023-04-30T18:27:44.814Z,2.58
2023-04-30T18:30:12.658Z,2.88
2023-04-30T18:32:41.549Z,2.00
2023-04-30T18:35:09.032Z,1.00
2023-04-30T18:37:35.928Z,1.63
2023-04-30T18:40:03.824Z,2.53
2023-04-30T18:42:30.873Z,3.00
2023-04-30T18:44:57.758Z,1.58
2023-04-30T18:47:24.767Z,1.02
2023-04-30T18:49:51.760Z,1.95
2023-04-30T18:52:18.561Z,2.78
2023-04-30T18:54:45.375Z,2.15
2023-04-30T18:57:14.748Z,2.25
2023-04-30T18:59:42.311Z,2.28
2023-04-30T19:02:10.110Z,2.28
2023-04-30T19:04:37.801Z,1.55
2023-04-30T19:07:04.739Z,1.45
2023-04-30T19:09:36.251Z,2.65
2023-04-30T19:12:03.755Z,1.38
2023-04-30T19:14:30.906Z,1.95
2023-04-30T19:16:57.786Z,2.38
2023-04-30T19:19:24.677Z,3.33
2023-04-30T19:21:53.392Z,3.03
2023-04-30T19:24:21.152Z,2.05
2023-04-30T19:26:50.739Z,1.40
2023-04-30T19:29:18.873Z,3.83
2023-04-30T19:31:45.753Z,2.22
2023-04-30T19:34:13.780Z,3.50
2023-04-30T19:36:43.969Z,3.38
2023-04-30T19:39:11.796Z,2.65
2023-04-30T19:41:39.115Z,2.25
2023-04-30T19:44:06.337Z,2.25
2023-04-30T19:46:33.234Z,2.50
2023-04-30T19:49:00.124Z,3.95
2023-04-30T19:51:26.989Z,3.03
2023-04-30T19:53:54.889Z,3.70
2023-04-30T19:56:22.116Z,3.63
2023-04-30T19:58:48.938Z,3.22
2023-04-30T20:01:15.989Z,3.80
2023-04-30T20:03:43.356Z,3.65
2023-04-30T20:06:11.010Z,5.72
2023-04-30T20:08:37.962Z,7.63
2023-04-30T20:11:04.860Z,6.78
2023-04-30T20:13:31.626Z,6.78
2023-04-30T20:15:58.890Z,5.78
2023-04-30T20:18:25.783Z,5.82
2023-04-30T20:20:52.606Z,4.80
2023-04-30T20:23:20.320Z,6.28
2023-04-30T20:25:47.852Z,6.38
2023-04-30T20:28:16.809Z,3.72
2023-04-30T20:30:44.490Z,4.15
2023-04-30T20:33:12.723Z,3.67
2023-04-30T20:35:47.638Z,4.20
2023-04-30T20:38:18.915Z,3.45
2023-04-30T20:40:46.982Z,4.18
2023-04-30T20:43:13.964Z,3.47
2023-04-30T20:45:42.655Z,3.28
2023-04-30T20:48:09.804Z,3.63
2023-04-30T20:50:37.346Z,2.75
2023-04-30T20:53:04.435Z,2.85
2023-04-30T20:55:31.409Z,4.90
2023-04-30T20:57:58.220Z,2.65
2023-04-30T21:00:25.083Z,3.33
2023-04-30T21:02:53.831Z,2.75
2023-04-30T21:05:20.852Z,2.15
2023-04-30T21:07:47.723Z,3.38
2023-04-30T21:10:14.577Z,2.65
2023-04-30T21:12:41.870Z,2.72
2023-04-30T21:15:09.775Z,3.85
2023-04-30T21:17:36.707Z,3.05
2023-04-30T21:20:04.221Z,2.75
2023-04-30T21:22:31.687Z,2.67
2023-04-30T21:24:58.486Z,2.78
2023-04-30T21:27:25.405Z,2.88
2023-04-30T21:29:52.228Z,6.15
2023-04-30T21:32:19.169Z,4.22
2023-04-30T21:34:45.967Z,2.83
2023-04-30T21:37:15.724Z,3.58
2023-04-30T21:39:43.779Z,3.20
2023-04-30T21:42:10.685Z,3.28
2023-04-30T21:44:37.538Z,3.33
2023-04-30T21:47:04.269Z,4.40
2023-04-30T21:49:31.297Z,2.90
2023-04-30T21:51:58.137Z,3.15
2023-04-30T21:54:25.093Z,4.18
2023-04-30T21:56:51.874Z,2.40
2023-04-30T21:59:18.665Z,2.83
2023-04-30T22:01:45.811Z,3.65
2023-04-30T22:04:12.724Z,3.22
2023-04-30T22:06:40.247Z,2.40
2023-04-30T22:09:07.124Z,3.08
2023-04-30T22:11:33.962Z,6.60
2023-04-30T22:14:01.066Z,3.75
2023-04-30T22:16:27.909Z,4.68
2023-04-30T22:18:57.400Z,3.90
2023-04-30T22:21:25.777Z,2.75
2023-04-30T22:23:52.573Z,5.20
2023-04-30T22:26:19.431Z,2.42
2023-04-30T22:28:46.261Z,3.80
2023-04-30T22:31:13.127Z,3.60
2023-04-30T22:33:39.917Z,4.50
2023-04-30T22:36:07.091Z,3.55
2023-04-30T22:38:35.188Z,4.05
2023-04-30T22:41:04.297Z,4.10
2023-04-30T22:43:31.347Z,6.05
2023-04-30T22:45:59.833Z,4.18
2023-04-30T22:48:27.977Z,4.57
2023-04-30T22:50:55.436Z,4.57
2023-04-30T22:53:22.384Z,8.20
2023-04-30T22:55:49.643Z,3.65
2023-04-30T22:58:17.053Z,3.92
2023-04-30T23:00:43.930Z,3.67
2023-04-30T23:03:11.235Z,4.20
2023-04-30T23:05:38.266Z,3.50
2023-04-30T23:08:05.126Z,3.58
2023-04-30T23:10:31.928Z,4.57
2023-04-30T23:12:58.996Z,3.60
2023-04-30T23:15:26.878Z,4.88
2023-04-30T23:17:54.573Z,2.88
2023-04-30T23:20:22.496Z,2.97
2023-04-30T23:22:50.014Z,3.97
2023-04-30T23:25:17.037Z,2.33
2023-04-30T23:27:45.159Z,4.47
2023-04-30T23:30:12.299Z,2.95
2023-04-30T23:32:39.193Z,3.40
2023-04-30T23:35:07.845Z,4.75
2023-04-30T23:37:35.267Z,5.68
2023-04-30T23:40:02.324Z,4.10
2023-04-30T23:42:29.213Z,4.50
2023-04-30T23:44:55.992Z,2.75
2023-04-30T23:47:23.072Z,5.28
2023-04-30T23:49:49.937Z,3.35
2023-04-30T23:52:16.765Z,4.65
2023-04-30T23:54:43.518Z,4.60
2023-04-30T23:57:11.178Z,3.47
2023-04-30T23:59:38.030Z,3.13
